CheckWX is a tool to help pilots better visualize weather data.  It is not intended as a substitute for an official pre-flight weather briefing.

14:11:46 UTC

CYRT METAR
Rankin Inlet Airport
Rankin Inlet, Canada
Current

1 hour ago

CYRT 251300Z 34025G31KT 1 1/2SM BLSN FEW250 M22/M25 A2979 RMK BLSN1CI1 SLP093
Observed
Apr-25 @ 13:00 UTC
Wind
  • 340° at 25 KTS
  • Gusting to 31 KTS
Visibility
1 1/2 SM
Flight Rules
IFR
Conditions
Blowing Snow
Cloud Levels
  • Few at 25,000' AGL
Temperature
-22°C / -8°F
Dewpoint
-25°C / -13°F
Humidity
77%
Altimeter
29.79" Hg
Pressure
1008.82 hPa
Previous

2 hours ago

CYRT 251235Z 34027KT 2SM BLSN FEW250 M22/M25 A2978 RMK CI1 SLP091
Observed
Apr-25 @ 12:35 UTC
Wind
  • 340° at 27 KTS
Visibility
2 SM
Flight Rules
IFR
Conditions
Blowing Snow
Cloud Levels
  • Few at 25,000' AGL
Temperature
-22°C / -8°F
Dewpoint
-25°C / -13°F
Humidity
77%
Altimeter
29.78" Hg
Pressure
1008.42 hPa
Previous

2 hours ago

CYRT 251200Z 34023KT 3SM BLSN FEW250 M22/M25 A2978 RMK CI1 SLP091
Observed
Apr-25 @ 12:00 UTC
Wind
  • 340° at 23 KTS
Visibility
3 SM
Flight Rules
MVFR
Conditions
Blowing Snow
Cloud Levels
  • Few at 25,000' AGL
Temperature
-22°C / -8°F
Dewpoint
-25°C / -13°F
Humidity
77%
Altimeter
29.78" Hg
Pressure
1008.42 hPa